Terminal Aerodrome Forecast
Issued by NWS Jackson, MS

Home | Current Version | Previous Version | Text Only | Print | Product List | Glossary On
Versions: 1 2 3 4 5 6 7 8 9 10 11 12 13 14 15
000
FTUS44 KJAN 260520
TAFHBG
TAF
KHBG 260520Z 2606/2706 15003KT P6SM SKC
     FM261500 20011KT P6SM FEW250
     FM261800 19013G19KT P6SM SKC
     FM262100 19011KT P6SM SKC=

USA.gov is the U.S. government's official web portal to all federal, state and local government web resources and services.